sensor_id;sensor_type;location;lat;lon;timestamp;pressure;altitude;pressure_sealevel;temperature;humidity
10071;BME280;5074;53.720;10.014;2022-08-21T00:01:05;101243.25;;;12.78;100.00
10071;BME280;5074;53.720;10.014;2022-08-21T00:03:34;101249.59;;;12.76;100.00
10071;BME280;5074;53.720;10.014;2022-08-21T00:06:02;101237.91;;;12.77;100.00
10071;BME280;5074;53.720;10.014;2022-08-21T00:08:30;101233.66;;;12.71;100.00
10071;BME280;5074;53.720;10.014;2022-08-21T00:11:00;101235.63;;;12.66;100.00
10071;BME280;5074;53.720;10.014;2022-08-21T00:13:28;101227.28;;;12.74;100.00
10071;BME280;5074;53.720;10.014;2022-08-21T00:15:56;101228.81;;;12.81;100.00
10071;BME280;5074;53.720;10.014;2022-08-21T00:18:25;101226.44;;;12.73;100.00
10071;BME280;5074;53.720;10.014;2022-08-21T00:20:53;101221.34;;;12.65;100.00
10071;BME280;5074;53.720;10.014;2022-08-21T00:23:21;101231.75;;;12.49;100.00
10071;BME280;5074;53.720;10.014;2022-08-21T00:25:50;101224.41;;;12.55;100.00
10071;BME280;5074;53.720;10.014;2022-08-21T00:28:19;101226.34;;;12.51;100.00
10071;BME280;5074;53.720;10.014;2022-08-21T00:30:47;101225.78;;;12.41;100.00
10071;BME280;5074;53.720;10.014;2022-08-21T00:33:15;101221.19;;;12.45;100.00
10071;BME280;5074;53.720;10.014;2022-08-21T00:35:43;101222.28;;;12.39;100.00
10071;BME280;5074;53.720;10.014;2022-08-21T00:38:12;101227.25;;;12.50;100.00
10071;BME280;5074;53.720;10.014;2022-08-21T00:40:44;101220.41;;;12.66;100.00
10071;BME280;5074;53.720;10.014;2022-08-21T00:43:14;101219.31;;;12.72;100.00
10071;BME280;5074;53.720;10.014;2022-08-21T00:45:45;101220.53;;;12.63;100.00
10071;BME280;5074;53.720;10.014;2022-08-21T00:48:13;101218.78;;;12.62;100.00
10071;BME280;5074;53.720;10.014;2022-08-21T00:50:44;101219.66;;;12.63;100.00
10071;BME280;5074;53.720;10.014;2022-08-21T00:53:14;101218.34;;;12.49;100.00
10071;BME280;5074;53.720;10.014;2022-08-21T00:55:43;101212.81;;;12.54;100.00
10071;BME280;5074;53.720;10.014;2022-08-21T00:58:12;101213.09;;;12.46;100.00
10071;BME280;5074;53.720;10.014;2022-08-21T01:00:46;101219.34;;;12.47;100.00
10071;BME280;5074;53.720;10.014;2022-08-21T01:03:18;101218.25;;;12.53;100.00
10071;BME280;5074;53.720;10.014;2022-08-21T01:05:50;101216.38;;;12.55;100.00
10071;BME280;5074;53.720;10.014;2022-08-21T01:08:19;101228.63;;;12.62;100.00
10071;BME280;5074;53.720;10.014;2022-08-21T01:10:47;101221.47;;;12.62;100.00
10071;BME280;5074;53.720;10.014;2022-08-21T01:13:21;101223.44;;;12.57;100.00
10071;BME280;5074;53.720;10.014;2022-08-21T01:15:54;101220.31;;;12.44;100.00
10071;BME280;5074;53.720;10.014;2022-08-21T01:18:23;101221.25;;;12.43;100.00
10071;BME280;5074;53.720;10.014;2022-08-21T01:21:03;101217.13;;;12.33;100.00
10071;BME280;5074;53.720;10.014;2022-08-21T01:23:32;101227.31;;;12.23;100.00
10071;BME280;5074;53.720;10.014;2022-08-21T01:26:01;101224.94;;;12.14;100.00
10071;BME280;5074;53.720;10.014;2022-08-21T01:28:33;101234.03;;;12.10;100.00
10071;BME280;5074;53.720;10.014;2022-08-21T01:31:03;101223.25;;;12.11;100.00
10071;BME280;5074;53.720;10.014;2022-08-21T01:33:32;101220.28;;;12.21;100.00
10071;BME280;5074;53.720;10.014;2022-08-21T01:36:02;101216.88;;;12.15;100.00
10071;BME280;5074;53.720;10.014;2022-08-21T01:38:31;101222.28;;;12.14;100.00
10071;BME280;5074;53.720;10.014;2022-08-21T01:40:59;101223.34;;;12.08;100.00
10071;BME280;5074;53.720;10.014;2022-08-21T01:43:27;101224.44;;;12.03;100.00
10071;BME280;5074;53.720;10.014;2022-08-21T01:46:05;101223.94;;;11.90;100.00
10071;BME280;5074;53.720;10.014;2022-08-21T01:48:33;101226.84;;;11.84;100.00
10071;BME280;5074;53.720;10.014;2022-08-21T01:51:04;101221.47;;;11.84;100.00
10071;BME280;5074;53.720;10.014;2022-08-21T01:53:33;101220.28;;;11.94;100.00
10071;BME280;5074;53.720;10.014;2022-08-21T01:56:04;101219.81;;;12.08;100.00
10071;BME280;5074;53.720;10.014;2022-08-21T01:58:38;101197.66;;;12.03;100.00
10071;BME280;5074;53.720;10.014;2022-08-21T02:01:07;101203.84;;;12.05;100.00
10071;BME280;5074;53.720;10.014;2022-08-21T02:03:36;101217.63;;;11.92;100.00
10071;BME280;5074;53.720;10.014;2022-08-21T02:06:07;101206.16;;;11.87;100.00
10071;BME280;5074;53.720;10.014;2022-08-21T02:08:35;101216.06;;;11.85;100.00
10071;BME280;5074;53.720;10.014;2022-08-21T02:11:03;101212.66;;;11.80;100.00
10071;BME280;5074;53.720;10.014;2022-08-21T02:13:31;101210.81;;;11.82;100.00
10071;BME280;5074;53.720;10.014;2022-08-21T02:15:59;101212.75;;;11.77;100.00
10071;BME280;5074;53.720;10.014;2022-08-21T02:18:27;101213.09;;;11.94;100.00
10071;BME280;5074;53.720;10.014;2022-08-21T02:20:56;101207.13;;;11.86;100.00
10071;BME280;5074;53.720;10.014;2022-08-21T02:23:25;101212.47;;;11.86;100.00
10071;BME280;5074;53.720;10.014;2022-08-21T02:25:54;101211.69;;;11.82;100.00
10071;BME280;5074;53.720;10.014;2022-08-21T02:28:22;101214.69;;;11.73;100.00
10071;BME280;5074;53.720;10.014;2022-08-21T02:30:52;101214.91;;;11.67;100.00
10071;BME280;5074;53.720;10.014;2022-08-21T02:33:20;101217.09;;;11.54;100.00
10071;BME280;5074;53.720;10.014;2022-08-21T02:35:49;101220.00;;;11.46;100.00
10071;BME280;5074;53.720;10.014;2022-08-21T02:38:21;101220.69;;;11.53;100.00
10071;BME280;5074;53.720;10.014;2022-08-21T02:40:51;101225.38;;;11.45;100.00
10071;BME280;5074;53.720;10.014;2022-08-21T02:43:21;101216.06;;;11.58;100.00
10071;BME280;5074;53.720;10.014;2022-08-21T02:45:51;101218.09;;;11.50;100.00
10071;BME280;5074;53.720;10.014;2022-08-21T02:48:21;101221.81;;;11.46;100.00
10071;BME280;5074;53.720;10.014;2022-08-21T02:50:52;101212.59;;;11.55;100.00
10071;BME280;5074;53.720;10.014;2022-08-21T02:53:21;101211.69;;;11.56;100.00
10071;BME280;5074;53.720;10.014;2022-08-21T02:55:51;101209.75;;;11.59;100.00
10071;BME280;5074;53.720;10.014;2022-08-21T02:58:22;101210.28;;;11.71;100.00
10071;BME280;5074;53.720;10.014;2022-08-21T03:00:51;101208.41;;;11.74;100.00
10071;BME280;5074;53.720;10.014;2022-08-21T03:03:20;101197.72;;;11.73;100.00
10071;BME280;5074;53.720;10.014;2022-08-21T03:05:48;101201.25;;;11.75;100.00
10071;BME280;5074;53.720;10.014;2022-08-21T03:08:17;101199.53;;;11.72;100.00
10071;BME280;5074;53.720;10.014;2022-08-21T03:10:47;101199.25;;;11.80;100.00
10071;BME280;5074;53.720;10.014;2022-08-21T03:13:18;101203.69;;;11.81;100.00
10071;BME280;5074;53.720;10.014;2022-08-21T03:15:47;101203.66;;;11.82;100.00
10071;BME280;5074;53.720;10.014;2022-08-21T03:18:16;101196.47;;;11.85;100.00
10071;BME280;5074;53.720;10.014;2022-08-21T03:20:45;101174.72;;;11.67;100.00
10071;BME280;5074;53.720;10.014;2022-08-21T03:23:14;101199.19;;;11.83;100.00
10071;BME280;5074;53.720;10.014;2022-08-21T03:25:46;101197.28;;;11.87;100.00
10071;BME280;5074;53.720;10.014;2022-08-21T03:28:18;101198.88;;;11.92;100.00
10071;BME280;5074;53.720;10.014;2022-08-21T03:30:49;101162.78;;;11.77;100.00
10071;BME280;5074;53.720;10.014;2022-08-21T03:33:18;101190.75;;;11.95;100.00
10071;BME280;5074;53.720;10.014;2022-08-21T03:35:55;101188.91;;;11.97;100.00
10071;BME280;5074;53.720;10.014;2022-08-21T03:38:24;101189.88;;;11.95;100.00
10071;BME280;5074;53.720;10.014;2022-08-21T03:40:54;101190.69;;;11.97;100.00
10071;BME280;5074;53.720;10.014;2022-08-21T03:43:23;101192.78;;;11.87;100.00
10071;BME280;5074;53.720;10.014;2022-08-21T03:45:51;101194.66;;;11.85;100.00
10071;BME280;5074;53.720;10.014;2022-08-21T03:48:20;101188.78;;;11.74;100.00
10071;BME280;5074;53.720;10.014;2022-08-21T03:50:48;101189.63;;;11.76;100.00
10071;BME280;5074;53.720;10.014;2022-08-21T03:53:16;101194.75;;;11.82;100.00
10071;BME280;5074;53.720;10.014;2022-08-21T03:55:45;101199.19;;;11.83;100.00
10071;BME280;5074;53.720;10.014;2022-08-21T03:58:15;101200.09;;;11.82;100.00
10071;BME280;5074;53.720;10.014;2022-08-21T04:00:46;101199.25;;;11.80;100.00
10071;BME280;5074;53.720;10.014;2022-08-21T04:03:15;101198.78;;;11.69;100.00
10071;BME280;5074;53.720;10.014;2022-08-21T04:05:44;101198.25;;;11.57;100.00
10071;BME280;5074;53.720;10.014;2022-08-21T04:08:14;101203.81;;;11.51;100.00
10071;BME280;5074;53.720;10.014;2022-08-21T04:10:45;101198.41;;;11.53;100.00
10071;BME280;5074;53.720;10.014;2022-08-21T04:13:14;101205.78;;;11.44;100.00
10071;BME280;5074;53.720;10.014;2022-08-21T04:15:42;101206.72;;;11.43;100.00
10071;BME280;5074;53.720;10.014;2022-08-21T04:18:12;101207.88;;;11.35;100.00
10071;BME280;5074;53.720;10.014;2022-08-21T04:20:41;101203.16;;;11.43;100.00
10071;BME280;5074;53.720;10.014;2022-08-21T04:23:16;101201.69;;;11.61;100.00
10071;BME280;5074;53.720;10.014;2022-08-21T04:25:51;101206.13;;;11.62;100.00
10071;BME280;5074;53.720;10.014;2022-08-21T04:28:19;101210.34;;;11.69;100.00
10071;BME280;5074;53.720;10.014;2022-08-21T04:30:49;101207.28;;;11.80;100.00
10071;BME280;5074;53.720;10.014;2022-08-21T04:33:21;101205.25;;;11.88;100.00
10071;BME280;5074;53.720;10.014;2022-08-21T04:35:49;101214.75;;;11.98;100.00
10071;BME280;5074;53.720;10.014;2022-08-21T04:38:18;101201.34;;;11.98;100.00
10071;BME280;5074;53.720;10.014;2022-08-21T04:40:47;101202.03;;;12.05;100.00
10071;BME280;5074;53.720;10.014;2022-08-21T04:43:16;101198.44;;;12.06;100.00
10071;BME280;5074;53.720;10.014;2022-08-21T04:45:47;101201.13;;;12.06;100.00
10071;BME280;5074;53.720;10.014;2022-08-21T04:48:18;101212.81;;;12.04;100.00
10071;BME280;5074;53.720;10.014;2022-08-21T04:50:50;101212.97;;;11.99;100.00
10071;BME280;5074;53.720;10.014;2022-08-21T04:53:22;101213.94;;;11.96;100.00
10071;BME280;5074;53.720;10.014;2022-08-21T04:55:53;101210.56;;;11.90;100.00
10071;BME280;5074;53.720;10.014;2022-08-21T04:58:24;101217.88;;;11.85;100.00
10071;BME280;5074;53.720;10.014;2022-08-21T05:00:56;101218.63;;;11.88;100.00
10071;BME280;5074;53.720;10.014;2022-08-21T05:03:25;101215.81;;;11.93;100.00
10071;BME280;5074;53.720;10.014;2022-08-21T05:05:55;101219.41;;;11.93;100.00
10071;BME280;5074;53.720;10.014;2022-08-21T05:08:25;101224.59;;;11.98;100.00
10071;BME280;5074;53.720;10.014;2022-08-21T05:10:55;101215.59;;;12.01;100.00
10071;BME280;5074;53.720;10.014;2022-08-21T05:13:26;101224.44;;;12.03;100.00
10071;BME280;5074;53.720;10.014;2022-08-21T05:15:55;101212.91;;;12.01;100.00
10071;BME280;5074;53.720;10.014;2022-08-21T05:18:23;101219.03;;;12.04;100.00
10071;BME280;5074;53.720;10.014;2022-08-21T05:20:51;101223.41;;;12.07;100.00
10071;BME280;5074;53.720;10.014;2022-08-21T05:23:21;101214.34;;;12.11;100.00
10071;BME280;5074;53.720;10.014;2022-08-21T05:25:49;101218.63;;;12.16;100.00
10071;BME280;5074;53.720;10.014;2022-08-21T05:28:17;101222.66;;;12.28;100.00
10071;BME280;5074;53.720;10.014;2022-08-21T05:30:45;101225.13;;;12.34;100.00
10071;BME280;5074;53.720;10.014;2022-08-21T05:33:13;101229.34;;;12.42;100.00
10071;BME280;5074;53.720;10.014;2022-08-21T05:35:41;101226.47;;;12.48;100.00
10071;BME280;5074;53.720;10.014;2022-08-21T05:38:10;101228.84;;;12.56;100.00
10071;BME280;5074;53.720;10.014;2022-08-21T05:40:45;101225.03;;;12.63;100.00
10071;BME280;5074;53.720;10.014;2022-08-21T05:43:14;101223.88;;;12.70;100.00
10071;BME280;5074;53.720;10.014;2022-08-21T05:45:43;101231.66;;;12.76;100.00
10071;BME280;5074;53.720;10.014;2022-08-21T05:48:12;101227.78;;;12.85;100.00
10071;BME280;5074;53.720;10.014;2022-08-21T05:50:42;101225.63;;;12.95;100.00
10071;BME280;5074;53.720;10.014;2022-08-21T05:53:13;101212.38;;;12.90;100.00
10071;BME280;5074;53.720;10.014;2022-08-21T05:55:41;101229.53;;;13.10;100.00
10071;BME280;5074;53.720;10.014;2022-08-21T05:58:15;101222.06;;;13.18;100.00
10071;BME280;5074;53.720;10.014;2022-08-21T06:00:45;101226.06;;;13.30;100.00
10071;BME280;5074;53.720;10.014;2022-08-21T06:03:16;101228.50;;;13.37;100.00
10071;BME280;5074;53.720;10.014;2022-08-21T06:05:45;101228.97;;;13.47;100.00
10071;BME280;5074;53.720;10.014;2022-08-21T06:08:13;101221.50;;;13.55;100.00
10071;BME280;5074;53.720;10.014;2022-08-21T06:10:43;101218.44;;;13.65;100.00
10071;BME280;5074;53.720;10.014;2022-08-21T06:13:11;101223.50;;;13.72;100.00
10071;BME280;5074;53.720;10.014;2022-08-21T06:15:41;101215.13;;;13.80;100.00
10071;BME280;5074;53.720;10.014;2022-08-21T06:18:09;101221.13;;;13.87;100.00
10071;BME280;5074;53.720;10.014;2022-08-21T06:20:38;101218.31;;;13.90;100.00
10071;BME280;5074;53.720;10.014;2022-08-21T06:23:06;101220.59;;;13.99;100.00
10071;BME280;5074;53.720;10.014;2022-08-21T06:25:35;101220.44;;;14.02;100.00
10071;BME280;5074;53.720;10.014;2022-08-21T06:28:04;101221.06;;;14.09;100.00
10071;BME280;5074;53.720;10.014;2022-08-21T06:30:34;101214.63;;;14.13;100.00
10071;BME280;5074;53.720;10.014;2022-08-21T06:33:04;101219.81;;;14.18;100.00
10071;BME280;5074;53.720;10.014;2022-08-21T06:35:33;101218.66;;;14.23;100.00
10071;BME280;5074;53.720;10.014;2022-08-21T06:38:02;101219.28;;;14.30;100.00
10071;BME280;5074;53.720;10.014;2022-08-21T06:40:31;101218.88;;;14.39;100.00
10071;BME280;5074;53.720;10.014;2022-08-21T06:43:06;101217.59;;;14.48;100.00
10071;BME280;5074;53.720;10.014;2022-08-21T06:45:35;101214.56;;;14.56;100.00
10071;BME280;5074;53.720;10.014;2022-08-21T06:48:05;101214.09;;;14.67;100.00
10071;BME280;5074;53.720;10.014;2022-08-21T06:50:34;101216.38;;;14.76;100.00
10071;BME280;5074;53.720;10.014;2022-08-21T06:53:04;101215.06;;;14.85;100.00
10071;BME280;5074;53.720;10.014;2022-08-21T06:55:32;101213.81;;;14.93;100.00
10071;BME280;5074;53.720;10.014;2022-08-21T06:58:00;101214.16;;;15.05;100.00
10071;BME280;5074;53.720;10.014;2022-08-21T07:00:28;101204.50;;;15.20;100.00
10071;BME280;5074;53.720;10.014;2022-08-21T07:02:57;101204.13;;;15.27;100.00
10071;BME280;5074;53.720;10.014;2022-08-21T07:05:28;101202.63;;;15.39;100.00
10071;BME280;5074;53.720;10.014;2022-08-21T07:07:57;101203.31;;;15.44;100.00
10071;BME280;5074;53.720;10.014;2022-08-21T07:10:26;101199.47;;;15.68;100.00
10071;BME280;5074;53.720;10.014;2022-08-21T07:12:55;101195.00;;;15.86;100.00
10071;BME280;5074;53.720;10.014;2022-08-21T07:15:28;101190.19;;;15.92;100.00
10071;BME280;5074;53.720;10.014;2022-08-21T07:17:58;101187.81;;;16.04;100.00
10071;BME280;5074;53.720;10.014;2022-08-21T07:20:28;101191.53;;;16.19;100.00
10071;BME280;5074;53.720;10.014;2022-08-21T07:22:59;101181.31;;;16.25;100.00
10071;BME280;5074;53.720;10.014;2022-08-21T07:25:29;101189.16;;;16.30;100.00
10071;BME280;5074;53.720;10.014;2022-08-21T07:27:57;101161.31;;;16.29;100.00
10071;BME280;5074;53.720;10.014;2022-08-21T07:30:25;101184.44;;;16.51;100.00
10071;BME280;5074;53.720;10.014;2022-08-21T07:32:55;101163.25;;;16.43;100.00
10071;BME280;5074;53.720;10.014;2022-08-21T07:35:24;101184.81;;;16.61;100.00
10071;BME280;5074;53.720;10.014;2022-08-21T07:37:55;101179.31;;;16.62;100.00
10071;BME280;5074;53.720;10.014;2022-08-21T07:40:24;101177.97;;;16.71;100.00
10071;BME280;5074;53.720;10.014;2022-08-21T07:42:52;101169.38;;;16.80;100.00
10071;BME280;5074;53.720;10.014;2022-08-21T07:45:22;101175.00;;;16.93;100.00
10071;BME280;5074;53.720;10.014;2022-08-21T07:47:51;101167.59;;;17.13;100.00
10071;BME280;5074;53.720;10.014;2022-08-21T07:50:23;101165.50;;;17.18;100.00
10071;BME280;5074;53.720;10.014;2022-08-21T07:52:52;101171.19;;;17.29;100.00
10071;BME280;5074;53.720;10.014;2022-08-21T07:55:22;101149.47;;;17.31;100.00
10071;BME280;5074;53.720;10.014;2022-08-21T07:57:50;101177.78;;;17.56;100.00
10071;BME280;5074;53.720;10.014;2022-08-21T08:00:22;101163.28;;;17.73;100.00
10071;BME280;5074;53.720;10.014;2022-08-21T08:02:51;101172.88;;;17.78;100.00
10071;BME280;5074;53.720;10.014;2022-08-21T08:05:22;101169.06;;;17.81;100.00
10071;BME280;5074;53.720;10.014;2022-08-21T08:07:51;101160.00;;;17.98;100.00
10071;BME280;5074;53.720;10.014;2022-08-21T08:10:22;101163.69;;;18.11;100.00
10071;BME280;5074;53.720;10.014;2022-08-21T08:12:51;101167.59;;;18.21;100.00
10071;BME280;5074;53.720;10.014;2022-08-21T08:15:24;101159.50;;;18.36;100.00
10071;BME280;5074;53.720;10.014;2022-08-21T08:17:52;101155.38;;;18.45;100.00
10071;BME280;5074;53.720;10.014;2022-08-21T08:20:22;101140.94;;;18.44;100.00
10071;BME280;5074;53.720;10.014;2022-08-21T08:22:52;101162.91;;;18.68;100.00
10071;BME280;5074;53.720;10.014;2022-08-21T08:25:23;101159.22;;;18.69;100.00
10071;BME280;5074;53.720;10.014;2022-08-21T08:27:51;101155.53;;;18.85;100.00
10071;BME280;5074;53.720;10.014;2022-08-21T08:30:20;101161.25;;;18.95;100.00
10071;BME280;5074;53.720;10.014;2022-08-21T08:32:49;101154.88;;;18.96;100.00
10071;BME280;5074;53.720;10.014;2022-08-21T08:35:17;101157.69;;;18.94;100.00
10071;BME280;5074;53.720;10.014;2022-08-21T08:37:51;101156.34;;;19.01;100.00
10071;BME280;5074;53.720;10.014;2022-08-21T08:40:25;101156.44;;;19.00;100.00
10071;BME280;5074;53.720;10.014;2022-08-21T08:42:56;101158.09;;;19.02;100.00
10071;BME280;5074;53.720;10.014;2022-08-21T08:45:25;101146.13;;;19.19;100.00
10071;BME280;5074;53.720;10.014;2022-08-21T08:47:57;101143.69;;;19.29;100.00
10071;BME280;5074;53.720;10.014;2022-08-21T08:50:39;101142.41;;;19.35;100.00
10071;BME280;5074;53.720;10.014;2022-08-21T08:53:12;101141.25;;;19.39;100.00
10071;BME280;5074;53.720;10.014;2022-08-21T08:55:44;101135.97;;;19.50;100.00
10071;BME280;5074;53.720;10.014;2022-08-21T08:58:17;101134.97;;;19.51;100.00
10071;BME280;5074;53.720;10.014;2022-08-21T09:00:49;101142.25;;;19.51;100.00
10071;BME280;5074;53.720;10.014;2022-08-21T09:03:18;101129.66;;;19.50;100.00
10071;BME280;5074;53.720;10.014;2022-08-21T09:05:50;101140.88;;;19.58;100.00
10071;BME280;5074;53.720;10.014;2022-08-21T09:08:42;101130.34;;;19.53;100.00
10071;BME280;5074;53.720;10.014;2022-08-21T09:11:26;101134.88;;;19.53;100.00
10071;BME280;5074;53.720;10.014;2022-08-21T09:14:13;101135.91;;;19.65;100.00
10071;BME280;5074;53.720;10.014;2022-08-21T09:16:49;101137.53;;;19.67;100.00
10071;BME280;5074;53.720;10.014;2022-08-21T09:19:45;101134.81;;;19.67;100.00
10071;BME280;5074;53.720;10.014;2022-08-21T09:22:28;101129.09;;;19.72;100.00
10071;BME280;5074;53.720;10.014;2022-08-21T09:25:08;101129.09;;;19.72;100.00
10071;BME280;5074;53.720;10.014;2022-08-21T09:27:40;101124.03;;;19.80;100.00
10071;BME280;5074;53.720;10.014;2022-08-21T09:30:09;101136.25;;;19.73;100.00
10071;BME280;5074;53.720;10.014;2022-08-21T09:32:38;101121.78;;;19.87;100.00
10071;BME280;5074;53.720;10.014;2022-08-21T09:35:10;101121.34;;;19.93;100.00
10071;BME280;5074;53.720;10.014;2022-08-21T09:37:48;101114.75;;;19.97;100.00
10071;BME280;5074;53.720;10.014;2022-08-21T09:40:33;101113.31;;;19.91;100.00
10071;BME280;5074;53.720;10.014;2022-08-21T09:43:07;101118.13;;;20.01;100.00
10071;BME280;5074;53.720;10.014;2022-08-21T09:45:44;101115.72;;;20.09;100.00
10071;BME280;5074;53.720;10.014;2022-08-21T09:48:17;101116.06;;;20.17;100.00
10071;BME280;5074;53.720;10.014;2022-08-21T09:50:47;101121.16;;;20.22;100.00
10071;BME280;5074;53.720;10.014;2022-08-21T09:53:19;101120.09;;;20.24;100.00
10071;BME280;5074;53.720;10.014;2022-08-21T09:55:51;101130.81;;;20.39;100.00
10071;BME280;5074;53.720;10.014;2022-08-21T09:58:41;101117.78;;;20.57;100.00
10071;BME280;5074;53.720;10.014;2022-08-21T10:01:14;101117.13;;;20.66;100.00
10071;BME280;5074;53.720;10.014;2022-08-21T10:03:42;101120.41;;;20.58;100.00
10071;BME280;5074;53.720;10.014;2022-08-21T10:06:22;101110.19;;;20.49;100.00
10071;BME280;5074;53.720;10.014;2022-08-21T10:08:50;101111.47;;;20.56;100.00
10071;BME280;5074;53.720;10.014;2022-08-21T10:11:24;101106.50;;;20.63;100.00
10071;BME280;5074;53.720;10.014;2022-08-21T10:14:04;101114.41;;;20.79;100.00
10071;BME280;5074;53.720;10.014;2022-08-21T10:16:41;101110.63;;;20.81;100.00
10071;BME280;5074;53.720;10.014;2022-08-21T10:19:18;101113.88;;;20.74;100.00
10071;BME280;5074;53.720;10.014;2022-08-21T10:21:59;101105.72;;;20.61;100.00
10071;BME280;5074;53.720;10.014;2022-08-21T10:24:31;101110.97;;;20.51;100.00
10071;BME280;5074;53.720;10.014;2022-08-21T10:27:14;101109.53;;;20.58;100.00
10071;BME280;5074;53.720;10.014;2022-08-21T10:29:50;101111.63;;;20.68;100.00
10071;BME280;5074;53.720;10.014;2022-08-21T10:32:33;101112.47;;;20.68;100.00
10071;BME280;5074;53.720;10.014;2022-08-21T10:35:10;101118.34;;;20.75;100.00
10071;BME280;5074;53.720;10.014;2022-08-21T10:37:52;101122.47;;;20.68;100.00
10071;BME280;5074;53.720;10.014;2022-08-21T10:40:27;101125.50;;;20.76;100.00
10071;BME280;5074;53.720;10.014;2022-08-21T10:43:04;101119.06;;;20.90;100.00
10071;BME280;5074;53.720;10.014;2022-08-21T10:45:48;101114.59;;;21.02;100.00
10071;BME280;5074;53.720;10.014;2022-08-21T10:48:25;101114.34;;;21.05;100.00
10071;BME280;5074;53.720;10.014;2022-08-21T10:51:04;101104.59;;;21.26;100.00
10071;BME280;5074;53.720;10.014;2022-08-21T10:53:45;101110.53;;;21.31;100.00
10071;BME280;5074;53.720;10.014;2022-08-21T10:56:17;101108.25;;;21.38;100.00
10071;BME280;5074;53.720;10.014;2022-08-21T10:58:53;101118.69;;;21.31;99.50
10071;BME280;5074;53.720;10.014;2022-08-21T11:01:34;101121.63;;;21.04;98.93
10071;BME280;5074;53.720;10.014;2022-08-21T11:04:12;101123.38;;;21.05;98.95
10071;BME280;5074;53.720;10.014;2022-08-21T11:06:47;101112.91;;;21.12;99.84
10071;BME280;5074;53.720;10.014;2022-08-21T11:09:20;101107.25;;;21.15;98.47
10071;BME280;5074;53.720;10.014;2022-08-21T11:11:55;101120.31;;;21.10;100.00
10071;BME280;5074;53.720;10.014;2022-08-21T11:14:43;101111.63;;;21.05;99.47
10071;BME280;5074;53.720;10.014;2022-08-21T11:17:20;101113.47;;;21.04;92.57
10071;BME280;5074;53.720;10.014;2022-08-21T11:19:54;101113.50;;;21.28;86.81
10071;BME280;5074;53.720;10.014;2022-08-21T11:22:33;101108.72;;;21.56;84.39
10071;BME280;5074;53.720;10.014;2022-08-21T11:25:07;101105.78;;;21.71;84.70
10071;BME280;5074;53.720;10.014;2022-08-21T11:27:42;101112.28;;;21.92;87.99
10071;BME280;5074;53.720;10.014;2022-08-21T11:30:12;101111.53;;;21.79;89.44
10071;BME280;5074;53.720;10.014;2022-08-21T11:33:05;101115.44;;;22.10;85.28
10071;BME280;5074;53.720;10.014;2022-08-21T11:35:47;101124.88;;;22.17;81.93
10071;BME280;5074;53.720;10.014;2022-08-21T11:38:27;101116.56;;;22.19;78.40
10071;BME280;5074;53.720;10.014;2022-08-21T11:41:08;101113.22;;;22.15;77.89
10071;BME280;5074;53.720;10.014;2022-08-21T11:43:43;101109.41;;;22.29;74.60
10071;BME280;5074;53.720;10.014;2022-08-21T11:46:28;101111.56;;;22.48;69.52
10071;BME280;5074;53.720;10.014;2022-08-21T11:49:17;101113.41;;;22.36;71.04
10071;BME280;5074;53.720;10.014;2022-08-21T11:52:04;101120.94;;;22.33;70.92
10071;BME280;5074;53.720;10.014;2022-08-21T11:54:40;101115.28;;;22.00;73.24
10071;BME280;5074;53.720;10.014;2022-08-21T11:57:16;101117.94;;;21.78;75.98
10071;BME280;5074;53.720;10.014;2022-08-21T11:59:50;101121.75;;;21.75;77.56
10071;BME280;5074;53.720;10.014;2022-08-21T12:02:22;101119.97;;;21.87;76.92
10071;BME280;5074;53.720;10.014;2022-08-21T12:05:00;101118.63;;;21.93;78.51
10071;BME280;5074;53.720;10.014;2022-08-21T12:07:37;101118.50;;;21.94;76.36
10071;BME280;5074;53.720;10.014;2022-08-21T12:10:08;101117.28;;;21.98;74.06
10071;BME280;5074;53.720;10.014;2022-08-21T12:12:39;101113.41;;;21.90;73.89
10071;BME280;5074;53.720;10.014;2022-08-21T12:15:23;101114.97;;;21.81;72.70
10071;BME280;5074;53.720;10.014;2022-08-21T12:17:55;101112.75;;;22.22;69.52
10071;BME280;5074;53.720;10.014;2022-08-21T12:20:37;101114.88;;;22.63;69.94
10071;BME280;5074;53.720;10.014;2022-08-21T12:23:26;101104.97;;;22.85;63.84
10071;BME280;5074;53.720;10.014;2022-08-21T12:28:47;101102.72;;;23.56;59.77
10071;BME280;5074;53.720;10.014;2022-08-21T12:31:21;101094.50;;;23.89;60.04
10071;BME280;5074;53.720;10.014;2022-08-21T12:33:54;101101.38;;;23.51;58.16
10071;BME280;5074;53.720;10.014;2022-08-21T12:36:35;101103.88;;;23.42;57.85
10071;BME280;5074;53.720;10.014;2022-08-21T12:39:12;101096.88;;;23.29;58.43
10071;BME280;5074;53.720;10.014;2022-08-21T12:41:45;101105.97;;;22.95;60.80
10071;BME280;5074;53.720;10.014;2022-08-21T12:44:19;101108.59;;;22.74;61.87
10071;BME280;5074;53.720;10.014;2022-08-21T12:46:56;101112.16;;;22.63;64.20
10071;BME280;5074;53.720;10.014;2022-08-21T12:49:28;101108.97;;;22.81;62.98
10071;BME280;5074;53.720;10.014;2022-08-21T12:52:11;101109.94;;;22.80;64.09
10071;BME280;5074;53.720;10.014;2022-08-21T12:54:43;101099.56;;;22.74;63.46
10071;BME280;5074;53.720;10.014;2022-08-21T12:57:18;101098.84;;;23.91;57.20
10071;BME280;5074;53.720;10.014;2022-08-21T12:59:52;101108.84;;;25.55;48.99
10071;BME280;5074;53.720;10.014;2022-08-21T13:02:24;101091.28;;;27.28;43.14
10071;BME280;5074;53.720;10.014;2022-08-21T13:04:54;101096.03;;;27.53;41.75
10071;BME280;5074;53.720;10.014;2022-08-21T13:07:28;101083.44;;;27.33;41.92